Pagina principale
METAR-TAF:

METAR-TAF

Aeroporti :

Avord, Francia

latitudine: 47-03-12N, longitudine: 002-37-57E, altezza: 177 m

Osservazione

Il bollettino è stato emesso 44 minuti fa, alle 12:30 UTC
Vento 1 kt da direzioni variabili
Temperature 37°C
Umidità 33%
Pressione 1020 hPa
Visibilità 10 km o più
nessuna nube inferiore a 1500 m e nessun cumulonembo

METAR: LFOA 271230Z AUTO VRB01KT CAVOK 37/18 Q1020 NOSIG

Ora: 15:14 (13:14 UTC)

Previsione

Il bollettino è stato emesso 5 ore e 14 minuti fa, alle 08:00 UTC
Previsione valida dal 27 alle 09 UTC al 28 alle 09 UTC
Vento 10 kt da est
Visibilità 10 km o più
nessuna nube inferiore a 1500 m e nessun cumulonembo

TAF: LFOA 270800Z 2709/2809 09010KT CAVOK

Osservazioni e previsioni meteorologiche di più di 4000 aeroporti (messaggi METAR e TAF).

Le stazioni disponibili sono rappresentate dai dischi gialli e rossi sulla carta.

Puntare il mouse per vedere il nome della stazione.

Clicca sopra per visualizzare le osservazioni e previsioni meteorologiche.

Per cambiare la mappa : fare clic sui pulsanti verdi con una croce nera per ingrandire, il pulsante verde con un trattino per diminuire, o sulla freccia verde per le mappe adiacenti.


METAR-TAF: